Time;durP1;ratioP1;P1;durP2;ratioP2;P2;SDS_P1;SDS_P2;PMS_P1;PMS_P2;Temp;Humidity;BMP_temperature;BMP_pressure;BME280_temperature;BME280_humidity;BME280_pressure;Samples;Min_cycle;Max_cycle;Signal;HPM_P1;HPM_P2
2021/04/11 00:00:05;;;;;;;11.40;1.10;;;;;;;;;;4994575;28;20030;-58
2021/04/11 00:02:32;;;;;;;2.30;1.17;;;;;;;;;;4996093;28;20286;-59
2021/04/11 00:04:59;;;;;;;10.82;1.30;;;;;;;;;;5003917;28;20541;-58
2021/04/11 00:07:26;;;;;;;4.35;0.88;;;;;;;;;;5003663;28;20061;-58
2021/04/11 00:09:53;;;;;;;7.38;1.00;;;;;;;;;;5010805;28;20080;-58
2021/04/11 00:12:20;;;;;;;2.90;1.08;;;;;;;;;;5012006;28;20034;-59
2021/04/11 00:14:47;;;;;;;14.77;1.60;;;;;;;;;;5005237;28;20102;-58
2021/04/11 00:17:14;;;;;;;11.25;1.08;;;;;;;;;;4991763;28;20026;-58
2021/04/11 00:19:41;;;;;;;4.43;1.20;;;;;;;;;;4996948;28;20060;-58
2021/04/11 00:22:08;;;;;;;2.78;0.80;;;;;;;;;;5011511;28;20022;-58
2021/04/11 00:24:36;;;;;;;3.35;0.70;;;;;;;;;;5011805;28;20058;-58
2021/04/11 00:27:03;;;;;;;2.33;0.80;;;;;;;;;;5012073;28;20167;-59
2021/04/11 00:29:30;;;;;;;3.90;0.85;;;;;;;;;;5011863;28;20087;-63
2021/04/11 00:31:57;;;;;;;5.07;1.02;;;;;;;;;;5000533;28;20048;-59
2021/04/11 00:34:25;;;;;;;9.88;1.20;;;;;;;;;;5000576;28;20040;-57
2021/04/11 00:36:56;;;;;;;2.78;0.90;;;;;;;;;;5010660;28;20045;-59
2021/04/11 00:39:23;;;;;;;3.80;0.80;;;;;;;;;;5000723;28;20033;-59
2021/04/11 00:41:52;;;;;;;2.47;1.00;;;;;;;;;;5011515;28;20022;-61
2021/04/11 00:44:20;;;;;;;3.75;0.90;;;;;;;;;;5011643;28;20022;-59
2021/04/11 00:46:55;;;;;;;2.67;1.05;;;;;;;;;;5011427;28;20037;-59
2021/04/11 00:49:44;;;;;;;5.30;1.00;;;;;;;;;;5011960;28;20022;-58
2021/04/11 00:52:13;;;;;;;2.90;1.30;;;;;;;;;;5011177;28;20054;-59
2021/04/11 00:54:41;;;;;;;4.13;1.02;;;;;;;;;;5012321;28;20037;-59
2021/04/11 00:57:09;;;;;;;8.43;1.42;;;;;;;;;;5011819;28;20022;-58
2021/04/11 00:59:36;;;;;;;4.85;1.20;;;;;;;;;;5010968;28;20036;-60
2021/04/11 01:02:04;;;;;;;3.25;1.17;;;;;;;;;;5011689;28;20029;-59
2021/04/11 01:04:31;;;;;;;6.00;1.23;;;;;;;;;;5010446;28;20057;-60
2021/04/11 01:07:00;;;;;;;2.55;1.08;;;;;;;;;;5011771;28;20033;-60
2021/04/11 01:09:33;;;;;;;6.90;1.20;;;;;;;;;;5011410;28;20089;-59
2021/04/11 01:12:01;;;;;;;6.18;1.02;;;;;;;;;;4995768;28;20039;-58
2021/04/11 01:14:32;;;;;;;4.20;1.35;;;;;;;;;;4997679;28;20030;-59
2021/04/11 01:17:00;;;;;;;2.88;1.00;;;;;;;;;;5010352;28;20094;-60
2021/04/11 01:19:29;;;;;;;2.70;0.85;;;;;;;;;;5011080;28;20053;-59
2021/04/11 01:22:08;;;;;;;3.58;0.70;;;;;;;;;;5011176;28;20412;-58
2021/04/11 01:24:53;;;;;;;2.55;1.27;;;;;;;;;;5011598;28;20557;-58
2021/04/11 01:27:23;;;;;;;4.65;1.10;;;;;;;;;;5011403;28;20027;-60
2021/04/11 01:29:52;;;;;;;5.63;1.00;;;;;;;;;;5013725;28;20030;-61
2021/04/11 01:32:19;;;;;;;2.58;1.00;;;;;;;;;;5013921;28;20079;-59
2021/04/11 01:34:48;;;;;;;5.28;1.33;;;;;;;;;;5013809;28;20108;-60
2021/04/11 01:37:16;;;;;;;5.30;1.30;;;;;;;;;;5013345;28;20336;-58
2021/04/11 01:39:44;;;;;;;2.38;0.90;;;;;;;;;;5012879;28;20021;-58
2021/04/11 01:42:12;;;;;;;5.75;0.85;;;;;;;;;;5013968;28;20462;-58
2021/04/11 01:44:43;;;;;;;3.45;0.90;;;;;;;;;;5013960;28;20061;-58
2021/04/11 01:47:12;;;;;;;5.43;1.13;;;;;;;;;;5011070;28;20046;-58
2021/04/11 01:49:40;;;;;;;4.10;1.00;;;;;;;;;;5013608;28;20076;-58
2021/04/11 01:52:09;;;;;;;2.22;0.90;;;;;;;;;;5013418;28;20424;-58
2021/04/11 01:54:38;;;;;;;3.97;1.10;;;;;;;;;;5012774;28;20053;-60
2021/04/11 01:57:31;;;;;;;4.45;1.00;;;;;;;;;;5013804;28;20025;-59
2021/04/11 02:00:07;;;;;;;5.30;0.98;;;;;;;;;;5012807;28;20042;-58
2021/04/11 02:02:34;;;;;;;2.85;1.02;;;;;;;;;;5014869;28;20026;-59
2021/04/11 02:05:01;;;;;;;3.80;0.95;;;;;;;;;;5014861;28;20025;-60
2021/04/11 02:07:28;;;;;;;2.97;0.90;;;;;;;;;;5014931;28;20109;-59
2021/04/11 02:09:56;;;;;;;6.57;0.90;;;;;;;;;;5014647;28;20030;-60
2021/04/11 02:12:23;;;;;;;4.00;1.00;;;;;;;;;;5014822;28;20052;-61
2021/04/11 02:14:50;;;;;;;2.33;0.70;;;;;;;;;;5014398;28;20386;-62
2021/04/11 02:17:17;;;;;;;8.27;1.00;;;;;;;;;;5013882;28;20026;-61
2021/04/11 02:19:44;;;;;;;2.45;1.00;;;;;;;;;;5008610;28;20121;-64
2021/04/11 02:22:20;;;;;;;6.45;1.00;;;;;;;;;;5014846;28;20026;-61
2021/04/11 02:24:47;;;;;;;5.38;1.05;;;;;;;;;;5014639;28;20056;-58
2021/04/11 02:27:15;;;;;;;2.75;1.05;;;;;;;;;;5014870;28;20476;-60
2021/04/11 02:29:45;;;;;;;3.75;0.75;;;;;;;;;;5014978;28;20021;-59
2021/04/11 02:32:12;;;;;;;2.53;0.82;;;;;;;;;;5014712;28;20038;-63
2021/04/11 02:34:39;;;;;;;1.88;1.13;;;;;;;;;;5015195;28;20165;-63
2021/04/11 02:37:06;;;;;;;6.65;0.90;;;;;;;;;;5014778;28;20029;-63
2021/04/11 02:39:36;;;;;;;3.42;1.20;;;;;;;;;;5014142;28;20050;-63
2021/04/11 02:42:07;;;;;;;2.05;0.70;;;;;;;;;;5014800;28;20500;-63
2021/04/11 02:44:38;;;;;;;3.60;0.87;;;;;;;;;;5017618;28;20498;-59
2021/04/11 02:47:06;;;;;;;3.40;1.10;;;;;;;;;;5025655;28;20014;-60
2021/04/11 02:49:33;;;;;;;1.95;0.80;;;;;;;;;;5023485;28;20025;-63
2021/04/11 02:52:02;;;;;;;3.20;0.90;;;;;;;;;;5014733;28;20032;-64
2021/04/11 02:54:30;;;;;;;2.95;0.70;;;;;;;;;;5014553;28;20508;-63
2021/04/11 02:56:58;;;;;;;3.78;0.82;;;;;;;;;;5014452;28;20037;-62
2021/04/11 02:59:25;;;;;;;3.47;0.70;;;;;;;;;;5014689;28;20045;-61
2021/04/11 03:01:53;;;;;;;2.72;0.82;;;;;;;;;;5014757;28;20092;-62
2021/04/11 03:04:21;;;;;;;1.55;0.80;;;;;;;;;;5014462;28;20025;-62
2021/04/11 03:06:59;;;;;;;2.85;0.70;;;;;;;;;;5014337;28;20032;-62
2021/04/11 03:09:34;;;;;;;4.47;0.70;;;;;;;;;;5014596;28;20509;-63
2021/04/11 03:12:02;;;;;;;2.53;0.80;;;;;;;;;;5014444;28;20030;-60
2021/04/11 03:14:31;;;;;;;3.53;0.82;;;;;;;;;;5014309;28;20022;-62
2021/04/11 03:16:58;;;;;;;3.10;0.82;;;;;;;;;;5014153;28;20022;-62
2021/04/11 03:19:34;;;;;;;1.13;0.65;;;;;;;;;;5014287;28;20045;-60
2021/04/11 03:22:01;;;;;;;2.80;0.60;;;;;;;;;;5014213;28;20014;-62
2021/04/11 03:24:28;;;;;;;1.58;1.00;;;;;;;;;;5013690;28;20125;-62
2021/04/11 03:27:03;;;;;;;1.73;0.80;;;;;;;;;;5014156;28;20026;-60
2021/04/11 03:29:30;;;;;;;1.27;0.80;;;;;;;;;;5014165;28;20481;-62
2021/04/11 03:32:05;;;;;;;2.08;0.88;;;;;;;;;;5013937;28;20030;-61
2021/04/11 03:34:33;;;;;;;4.35;0.80;;;;;;;;;;5014002;28;20030;-62
2021/04/11 03:37:02;;;;;;;2.92;0.90;;;;;;;;;;5013902;28;20025;-61
2021/04/11 03:39:33;;;;;;;1.77;0.65;;;;;;;;;;5014082;28;20105;-61
2021/04/11 03:42:00;;;;;;;1.38;0.70;;;;;;;;;;5013827;28;20539;-61
2021/04/11 03:44:28;;;;;;;0.70;0.70;;;;;;;;;;5013773;28;20026;-61
2021/04/11 03:46:59;;;;;;;1.10;0.73;;;;;;;;;;5013784;28;20022;-61
2021/04/11 03:49:29;;;;;;;2.42;0.77;;;;;;;;;;5012502;28;20101;-61
2021/04/11 03:51:58;;;;;;;1.30;0.80;;;;;;;;;;5011858;28;20034;-61
2021/04/11 03:54:29;;;;;;;1.60;0.98;;;;;;;;;;5013751;28;20022;-62
2021/04/11 03:57:08;;;;;;;2.50;0.63;;;;;;;;;;5013571;28;20187;-62
2021/04/11 03:59:38;;;;;;;2.45;0.73;;;;;;;;;;5013548;28;20516;-61
2021/04/11 04:02:06;;;;;;;2.35;0.98;;;;;;;;;;5013378;28;20034;-62
2021/04/11 04:04:35;;;;;;;0.90;0.52;;;;;;;;;;5013443;28;20477;-61
2021/04/11 04:07:02;;;;;;;2.97;0.70;;;;;;;;;;5013524;28;20049;-62
2021/04/11 04:09:29;;;;;;;1.20;1.00;;;;;;;;;;5013464;28;20018;-61
2021/04/11 04:11:56;;;;;;;2.50;0.85;;;;;;;;;;5013318;28;20033;-62
2021/04/11 04:14:41;;;;;;;2.75;0.88;;;;;;;;;;5013302;28;20501;-58
2021/04/11 04:17:44;;;;;;;0.77;0.77;;;;;;;;;;5013289;28;20445;-62
2021/04/11 04:20:11;;;;;;;0.93;0.70;;;;;;;;;;4971940;28;20081;-61
2021/04/11 04:22:44;;;;;;;0.93;0.77;;;;;;;;;;5005517;28;20054;-61
2021/04/11 04:25:11;;;;;;;0.98;0.70;;;;;;;;;;5012925;28;20061;-61
2021/04/11 04:27:45;;;;;;;3.67;0.68;;;;;;;;;;5012978;28;20026;-62
2021/04/11 04:30:26;;;;;;;2.05;0.77;;;;;;;;;;5013143;28;20090;-60
2021/04/11 04:33:08;;;;;;;1.10;0.73;;;;;;;;;;5013172;28;20444;-61
2021/04/11 04:35:53;;;;;;;2.05;1.00;;;;;;;;;;5013204;28;20083;-61
2021/04/11 04:38:20;;;;;;;0.98;0.60;;;;;;;;;;5013111;28;20033;-61
2021/04/11 04:41:06;;;;;;;4.13;0.60;;;;;;;;;;5012966;28;20025;-59
2021/04/11 04:43:43;;;;;;;1.20;1.08;;;;;;;;;;5013282;28;20398;-61
2021/04/11 04:46:10;;;;;;;3.22;0.70;;;;;;;;;;5013019;28;20121;-62
2021/04/11 04:48:49;;;;;;;0.98;0.50;;;;;;;;;;5012086;28;20030;-58
2021/04/11 04:51:19;;;;;;;0.80;0.80;;;;;;;;;;5012368;28;20030;-59
2021/04/11 04:53:57;;;;;;;1.45;0.80;;;;;;;;;;5000142;28;20039;-58
2021/04/11 04:56:26;;;;;;;1.90;0.88;;;;;;;;;;5011538;28;20022;-58
2021/04/11 04:58:57;;;;;;;1.65;0.82;;;;;;;;;;5012573;28;20389;-58
2021/04/11 05:01:31;;;;;;;0.98;0.68;;;;;;;;;;5012763;28;20176;-57
2021/04/11 05:04:07;;;;;;;0.70;0.55;;;;;;;;;;5015780;28;20022;-59
2021/04/11 05:06:39;;;;;;;0.60;0.60;;;;;;;;;;5016664;28;20493;-59
2021/04/11 05:09:06;;;;;;;0.88;0.70;;;;;;;;;;5016674;28;20022;-58
2021/04/11 05:11:46;;;;;;;2.65;0.77;;;;;;;;;;5015102;28;20061;-58
2021/04/11 05:14:15;;;;;;;0.60;0.60;;;;;;;;;;5016611;28;20040;-58
2021/04/11 05:16:48;;;;;;;0.98;0.68;;;;;;;;;;5016524;28;20021;-58
2021/04/11 05:19:18;;;;;;;2.53;0.98;;;;;;;;;;5016555;28;20029;-58
2021/04/11 05:21:52;;;;;;;1.63;0.77;;;;;;;;;;5016076;28;20022;-59
2021/04/11 05:24:28;;;;;;;1.27;0.88;;;;;;;;;;5016230;28;20050;-59
2021/04/11 05:27:02;;;;;;;15.25;1.02;;;;;;;;;;5016411;28;20025;-59
2021/04/11 05:29:38;;;;;;;1.05;0.70;;;;;;;;;;5016409;28;20026;-61
2021/04/11 05:32:05;;;;;;;1.38;0.75;;;;;;;;;;5016143;28;20033;-62
2021/04/11 05:34:33;;;;;;;1.63;1.23;;;;;;;;;;5016139;28;20040;-61
2021/04/11 05:37:00;;;;;;;1.50;0.73;;;;;;;;;;5016160;28;20442;-61
2021/04/11 05:39:32;;;;;;;1.60;1.00;;;;;;;;;;5016016;28;20109;-62
2021/04/11 05:42:11;;;;;;;1.35;0.63;;;;;;;;;;5016080;28;20049;-61
2021/04/11 05:44:44;;;;;;;1.45;0.57;;;;;;;;;;5015910;28;20030;-62
2021/04/11 05:47:14;;;;;;;1.40;0.85;;;;;;;;;;5015781;28;20026;-61
2021/04/11 05:49:44;;;;;;;2.88;0.90;;;;;;;;;;5016021;28;20482;-61
2021/04/11 05:52:13;;;;;;;1.52;0.90;;;;;;;;;;5015776;28;20034;-61
2021/04/11 05:54:48;;;;;;;2.28;1.00;;;;;;;;;;5015709;28;20416;-62
2021/04/11 05:57:21;;;;;;;1.85;1.17;;;;;;;;;;5015913;28;20080;-62
2021/04/11 06:00:11;;;;;;;2.70;0.80;;;;;;;;;;5015747;28;20076;-61
2021/04/11 06:02:49;;;;;;;1.55;0.93;;;;;;;;;;5010610;28;20038;-62
2021/04/11 06:05:38;;;;;;;3.80;1.00;;;;;;;;;;5015768;28;20466;-61
2021/04/11 06:08:08;;;;;;;1.38;0.90;;;;;;;;;;5015519;28;20413;-61
2021/04/11 06:10:46;;;;;;;1.30;0.85;;;;;;;;;;5015601;28;20026;-62
2021/04/11 06:13:19;;;;;;;2.80;1.30;;;;;;;;;;5015460;28;20041;-61
2021/04/11 06:15:53;;;;;;;1.88;1.00;;;;;;;;;;5014143;28;20032;-61
2021/04/11 06:18:20;;;;;;;1.80;0.82;;;;;;;;;;5015544;28;20056;-61
2021/04/11 06:20:48;;;;;;;1.10;0.70;;;;;;;;;;5015280;28;20022;-62
2021/04/11 06:23:15;;;;;;;2.53;0.75;;;;;;;;;;5015031;28;20030;-62
2021/04/11 06:25:56;;;;;;;1.10;0.73;;;;;;;;;;5015197;28;20441;-62
2021/04/11 06:28:32;;;;;;;0.85;0.68;;;;;;;;;;5015532;28;20390;-62
2021/04/11 06:31:04;;;;;;;1.17;0.85;;;;;;;;;;5015330;28;20033;-62
2021/04/11 06:33:37;;;;;;;1.23;0.80;;;;;;;;;;5014960;28;20030;-61
2021/04/11 06:36:09;;;;;;;1.42;0.80;;;;;;;;;;5015022;28;20018;-61
2021/04/11 06:38:42;;;;;;;1.80;1.10;;;;;;;;;;5014906;28;20044;-62
2021/04/11 06:41:09;;;;;;;1.33;1.00;;;;;;;;;;5015270;28;20028;-62
2021/04/11 06:43:54;;;;;;;1.23;0.70;;;;;;;;;;5014830;28;20394;-62
2021/04/11 06:46:30;;;;;;;2.35;0.85;;;;;;;;;;5012808;28;20382;-61
2021/04/11 06:49:00;;;;;;;3.55;0.90;;;;;;;;;;5014699;28;20029;-61
2021/04/11 06:51:45;;;;;;;1.83;1.00;;;;;;;;;;5014779;28;20044;-61
2021/04/11 06:54:30;;;;;;;1.92;0.90;;;;;;;;;;5014621;28;20034;-61
2021/04/11 06:56:57;;;;;;;1.98;1.08;;;;;;;;;;5014556;28;20098;-61
2021/04/11 06:59:42;;;;;;;5.55;1.05;;;;;;;;;;5014604;28;20021;-61
2021/04/11 07:02:36;;;;;;;1.08;0.70;;;;;;;;;;5014685;28;20101;-61
2021/04/11 07:05:03;;;;;;;1.00;0.80;;;;;;;;;;5014585;28;20092;-62
2021/04/11 07:07:39;;;;;;;2.20;1.00;;;;;;;;;;5014453;28;20018;-62
2021/04/11 07:10:05;;;;;;;1.38;0.77;;;;;;;;;;5014431;28;20105;-61
2021/04/11 07:12:40;;;;;;;1.92;1.05;;;;;;;;;;5014409;28;20108;-58
2021/04/11 07:15:19;;;;;;;1.73;1.05;;;;;;;;;;5013241;28;20026;-58
2021/04/11 07:18:04;;;;;;;1.92;1.02;;;;;;;;;;5014309;28;20033;-59
2021/04/11 07:20:40;;;;;;;0.93;0.82;;;;;;;;;;5014191;28;20461;-58
2021/04/11 07:23:26;;;;;;;2.35;1.00;;;;;;;;;;5014335;28;20084;-59
2021/04/11 07:25:53;;;;;;;1.52;0.90;;;;;;;;;;5013933;28;20060;-58
2021/04/11 07:28:38;;;;;;;0.95;0.70;;;;;;;;;;5013977;28;20486;-58
2021/04/11 07:31:17;;;;;;;1.13;1.02;;;;;;;;;;5013970;28;20030;-59
2021/04/11 07:33:56;;;;;;;2.65;0.90;;;;;;;;;;5013781;28;20040;-58
2021/04/11 07:36:29;;;;;;;1.05;0.65;;;;;;;;;;5013884;28;20429;-59
2021/04/11 07:39:14;;;;;;;1.42;0.90;;;;;;;;;;5014019;28;20421;-57
2021/04/11 07:41:59;;;;;;;1.70;1.00;;;;;;;;;;5014030;28;20504;-59
2021/04/11 07:44:42;;;;;;;1.35;1.10;;;;;;;;;;5013970;28;20022;-58
2021/04/11 07:47:09;;;;;;;2.15;0.80;;;;;;;;;;5013705;28;20381;-60
2021/04/11 07:49:45;;;;;;;1.60;0.80;;;;;;;;;;5013710;28;20026;-59
2021/04/11 07:52:24;;;;;;;1.25;0.73;;;;;;;;;;5013592;28;20034;-59
2021/04/11 07:55:01;;;;;;;0.68;0.60;;;;;;;;;;5013562;28;20036;-62
2021/04/11 07:57:47;;;;;;;1.25;0.63;;;;;;;;;;5013526;28;20448;-62
2021/04/11 08:00:14;;;;;;;2.30;0.88;;;;;;;;;;5013491;28;20389;-62
2021/04/11 08:02:59;;;;;;;1.00;0.80;;;;;;;;;;5013734;28;20026;-61
2021/04/11 08:05:26;;;;;;;1.38;0.80;;;;;;;;;;5013489;28;20036;-62
2021/04/11 08:08:25;;;;;;;1.25;0.68;;;;;;;;;;5013299;28;20026;-61
2021/04/11 08:11:11;;;;;;;2.55;0.70;;;;;;;;;;4991307;28;20030;-62
2021/04/11 08:13:47;;;;;;;1.63;0.90;;;;;;;;;;5012144;28;20457;-61
2021/04/11 08:16:32;;;;;;;1.55;0.80;;;;;;;;;;5013106;28;20026;-61
2021/04/11 08:19:02;;;;;;;1.13;0.50;;;;;;;;;;5013145;28;20390;-61
2021/04/11 08:21:47;;;;;;;1.50;0.80;;;;;;;;;;5013228;28;20511;-60
2021/04/11 08:24:29;;;;;;;0.60;0.47;;;;;;;;;;4993322;28;20077;-61
2021/04/11 08:27:08;;;;;;;1.88;0.80;;;;;;;;;;4993296;28;20030;-61
2021/04/11 08:29:40;;;;;;;1.27;0.73;;;;;;;;;;4993573;28;20463;-61
2021/04/11 08:32:06;;;;;;;;;;;;;;;;;;4993985;28;20118;-61
2021/04/11 08:34:52;;;;;;;1.00;0.68;;;;;;;;;;4993489;28;19963;-62
2021/04/11 08:37:37;;;;;;;1.23;0.90;;;;;;;;;;4991291;28;20045;-62
2021/04/11 08:40:17;;;;;;;1.02;0.50;;;;;;;;;;4993332;28;20022;-61
2021/04/11 08:42:44;;;;;;;1.35;0.73;;;;;;;;;;4993461;28;20034;-62
2021/04/11 08:45:11;;;;;;;0.90;0.70;;;;;;;;;;4993346;28;20541;-60
2021/04/11 08:47:49;;;;;;;0.73;0.73;;;;;;;;;;4993304;28;20034;-62
2021/04/11 08:50:21;;;;;;;0.70;0.55;;;;;;;;;;4993455;28;20070;-61
2021/04/11 08:52:48;;;;;;;1.13;0.70;;;;;;;;;;4993141;28;20058;-62
2021/04/11 08:55:22;;;;;;;1.02;0.75;;;;;;;;;;4993311;28;20034;-62
2021/04/11 08:58:01;;;;;;;1.70;0.65;;;;;;;;;;4993390;28;20026;-61
2021/04/11 09:00:37;;;;;;;1.77;0.75;;;;;;;;;;4993248;28;20053;-61
2021/04/11 09:03:07;;;;;;;1.05;0.60;;;;;;;;;;4993624;28;20023;-62
2021/04/11 09:05:48;;;;;;;1.48;0.60;;;;;;;;;;4993280;28;20037;-62
2021/04/11 09:08:20;;;;;;;0.98;0.47;;;;;;;;;;4993228;28;20487;-61
2021/04/11 09:11:00;;;;;;;1.15;0.85;;;;;;;;;;4993080;28;20053;-59
2021/04/11 09:13:45;;;;;;;1.05;0.60;;;;;;;;;;4993034;28;20042;-62
2021/04/11 09:16:24;;;;;;;1.10;0.60;;;;;;;;;;4993042;28;20113;-62
2021/04/11 09:18:51;;;;;;;2.00;0.80;;;;;;;;;;4993237;28;20505;-62
2021/04/11 09:21:19;;;;;;;0.80;0.60;;;;;;;;;;4992899;28;20367;-61
2021/04/11 09:23:54;;;;;;;0.70;0.50;;;;;;;;;;4992795;28;20054;-61
2021/04/11 09:26:39;;;;;;;0.55;0.40;;;;;;;;;;4992992;28;20027;-60
2021/04/11 09:29:11;;;;;;;1.95;0.90;;;;;;;;;;4992856;28;20030;-61
2021/04/11 09:31:53;;;;;;;0.43;0.43;;;;;;;;;;4993141;28;20149;-60
2021/04/11 09:34:43;;;;;;;0.98;0.60;;;;;;;;;;4993012;28;20406;-58
2021/04/11 09:37:25;;;;;;;1.08;0.70;;;;;;;;;;4990111;28;20117;-58
2021/04/11 09:40:02;;;;;;;1.60;0.50;;;;;;;;;;4993116;28;20098;-57
2021/04/11 09:42:47;;;;;;;0.70;0.70;;;;;;;;;;4992875;28;20053;-58
2021/04/11 09:45:32;;;;;;;0.98;0.80;;;;;;;;;;4993056;28;20026;-58
2021/04/11 09:48:16;;;;;;;1.77;0.60;;;;;;;;;;4992965;28;20029;-59
2021/04/11 09:50:49;;;;;;;0.75;0.50;;;;;;;;;;4996418;28;20109;-58
2021/04/11 09:53:36;;;;;;;0.68;0.60;;;;;;;;;;4996157;28;20066;-58
2021/04/11 09:56:03;;;;;;;0.63;0.50;;;;;;;;;;4992151;28;20038;-59
2021/04/11 09:58:30;;;;;;;0.75;0.40;;;;;;;;;;4996091;28;20030;-63
2021/04/11 10:01:11;;;;;;;0.68;0.40;;;;;;;;;;4996145;28;20022;-62
2021/04/11 10:03:57;;;;;;;1.10;0.65;;;;;;;;;;4996254;28;20026;-63
2021/04/11 10:06:35;;;;;;;0.73;0.60;;;;;;;;;;4996057;28;20379;-62
2021/04/11 10:09:17;;;;;;;0.50;0.47;;;;;;;;;;4996196;28;20046;-63
2021/04/11 10:12:02;;;;;;;0.50;0.50;;;;;;;;;;4995713;28;20380;-62
2021/04/11 10:14:41;;;;;;;0.98;0.70;;;;;;;;;;4994628;28;20398;-63
2021/04/11 10:17:23;;;;;;;1.30;0.60;;;;;;;;;;4995772;28;20475;-62
2021/04/11 10:19:53;;;;;;;0.50;0.47;;;;;;;;;;4995787;28;20542;-60
2021/04/11 10:22:26;;;;;;;0.65;0.60;;;;;;;;;;4995705;28;20101;-63
2021/04/11 10:25:04;;;;;;;3.58;0.40;;;;;;;;;;4995513;28;20046;-62
2021/04/11 10:27:50;;;;;;;1.17;0.60;;;;;;;;;;4995784;28;20026;-62
2021/04/11 10:30:18;;;;;;;2.10;0.60;;;;;;;;;;4995786;28;20029;-62
2021/04/11 10:32:45;;;;;;;3.92;0.65;;;;;;;;;;4995351;28;20054;-60
2021/04/11 10:35:15;;;;;;;0.47;0.45;;;;;;;;;;4995540;28;20026;-62
2021/04/11 10:37:53;;;;;;;1.23;0.50;;;;;;;;;;4995459;28;20049;-62
2021/04/11 10:40:20;;;;;;;0.77;0.50;;;;;;;;;;4995842;28;20112;-62
2021/04/11 10:42:46;;;;;;;0.52;0.40;;;;;;;;;;4995353;28;20022;-63
2021/04/11 10:45:17;;;;;;;0.60;0.60;;;;;;;;;;4995239;28;20429;-62
2021/04/11 10:48:02;;;;;;;0.55;0.50;;;;;;;;;;4995300;28;20033;-62
2021/04/11 10:50:34;;;;;;;0.60;0.40;;;;;;;;;;4995449;28;20030;-62
2021/04/11 10:53:09;;;;;;;2.35;0.63;;;;;;;;;;4995119;28;20030;-61
2021/04/11 10:55:49;;;;;;;0.57;0.50;;;;;;;;;;4995091;28;20097;-62
2021/04/11 10:58:22;;;;;;;0.43;0.40;;;;;;;;;;4995069;28;20058;-63
2021/04/11 11:01:03;;;;;;;0.60;0.40;;;;;;;;;;4994434;28;20061;-62
2021/04/11 11:03:30;;;;;;;0.90;0.55;;;;;;;;;;4994970;28;20030;-62
2021/04/11 11:06:02;;;;;;;0.70;0.50;;;;;;;;;;4995066;28;20097;-62
2021/04/11 11:08:29;;;;;;;2.40;0.40;;;;;;;;;;4994767;28;20026;-61
2021/04/11 11:10:59;;;;;;;0.38;0.35;;;;;;;;;;4994848;28;20076;-62
2021/04/11 11:13:39;;;;;;;0.38;0.32;;;;;;;;;;4993554;28;20442;-62
2021/04/11 11:16:14;;;;;;;0.57;0.35;;;;;;;;;;4994852;28;20023;-62
2021/04/11 11:19:03;;;;;;;0.35;0.35;;;;;;;;;;4994847;28;20026;-58
2021/04/11 11:21:32;;;;;;;0.50;0.50;;;;;;;;;;4994441;28;20046;-62
2021/04/11 11:23:58;;;;;;;0.63;0.30;;;;;;;;;;4994491;28;20046;-60
2021/04/11 11:26:35;;;;;;;0.70;0.60;;;;;;;;;;4994478;28;20113;-62
2021/04/11 11:29:08;;;;;;;0.63;0.40;;;;;;;;;;4994612;28;20414;-61
2021/04/11 11:31:46;;;;;;;0.65;0.40;;;;;;;;;;4994351;28;20018;-61
2021/04/11 11:34:13;;;;;;;0.70;0.57;;;;;;;;;;4994439;28;20038;-61
2021/04/11 11:36:42;;;;;;;0.50;0.50;;;;;;;;;;4994255;28;20390;-61
2021/04/11 11:39:32;;;;;;;0.50;0.47;;;;;;;;;;4994342;28;20061;-61
2021/04/11 11:42:17;;;;;;;0.60;0.30;;;;;;;;;;4994257;28;20018;-59
2021/04/11 11:44:57;;;;;;;0.60;0.52;;;;;;;;;;4994210;28;20026;-61
2021/04/11 11:47:31;;;;;;;0.30;0.30;;;;;;;;;;5012687;28;20026;-60
2021/04/11 11:50:04;;;;;;;0.43;0.40;;;;;;;;;;5013880;28;20025;-62
2021/04/11 11:52:37;;;;;;;0.40;0.40;;;;;;;;;;5013531;28;20026;-61
2021/04/11 11:55:07;;;;;;;0.50;0.50;;;;;;;;;;5013687;28;20065;-60
2021/04/11 11:57:41;;;;;;;0.60;0.55;;;;;;;;;;5013418;28;20408;-58
2021/04/11 12:00:08;;;;;;;0.70;0.60;;;;;;;;;;5013801;28;20022;-58
2021/04/11 12:02:55;;;;;;;0.40;0.40;;;;;;;;;;5003804;28;20022;-58
2021/04/11 12:05:22;;;;;;;0.82;0.57;;;;;;;;;;5003270;28;20025;-57
2021/04/11 12:08:08;;;;;;;0.30;0.30;;;;;;;;;;4997189;28;20054;-58
2021/04/11 12:10:43;;;;;;;0.82;0.60;;;;;;;;;;4993853;28;20029;-59
2021/04/11 12:13:19;;;;;;;0.47;0.45;;;;;;;;;;4992879;28;20181;-59
2021/04/11 12:15:55;;;;;;;0.60;0.60;;;;;;;;;;4993736;28;20026;-58
2021/04/11 12:18:42;;;;;;;0.63;0.50;;;;;;;;;;4993837;28;20029;-59
2021/04/11 12:21:24;;;;;;;0.55;0.50;;;;;;;;;;4993513;28;20072;-60
2021/04/11 12:24:01;;;;;;;0.85;0.60;;;;;;;;;;4993680;28;20060;-59
2021/04/11 12:26:31;;;;;;;0.57;0.52;;;;;;;;;;4993543;28;20030;-58
2021/04/11 12:29:05;;;;;;;0.98;0.50;;;;;;;;;;4993564;28;20023;-61
2021/04/11 12:31:39;;;;;;;0.80;0.70;;;;;;;;;;4993492;28;20026;-58
2021/04/11 12:34:18;;;;;;;0.60;0.50;;;;;;;;;;4993599;28;20034;-58
2021/04/11 12:36:58;;;;;;;0.50;0.50;;;;;;;;;;4993343;28;20023;-61
2021/04/11 12:39:28;;;;;;;0.93;0.60;;;;;;;;;;4993614;28;20030;-63
2021/04/11 12:42:04;;;;;;;0.47;0.43;;;;;;;;;;5010843;28;20041;-62
2021/04/11 12:44:31;;;;;;;0.90;0.68;;;;;;;;;;5012993;28;20100;-62
2021/04/11 12:47:14;;;;;;;0.52;0.40;;;;;;;;;;5013037;28;20026;-62
2021/04/11 12:49:59;;;;;;;1.75;0.40;;;;;;;;;;5005715;28;20490;-60
2021/04/11 12:52:38;;;;;;;0.50;0.50;;;;;;;;;;5000401;28;20057;-62
2021/04/11 12:55:11;;;;;;;0.32;0.32;;;;;;;;;;4999257;28;20022;-60
2021/04/11 12:57:56;;;;;;;0.55;0.55;;;;;;;;;;4998089;28;20036;-61
2021/04/11 13:00:30;;;;;;;1.23;0.73;;;;;;;;;;4999843;28;20042;-59
2021/04/11 13:03:05;;;;;;;1.15;0.60;;;;;;;;;;5005698;28;20132;-59
2021/04/11 13:05:43;;;;;;;0.73;0.45;;;;;;;;;;4998904;28;20049;-59
2021/04/11 13:08:37;;;;;;;0.40;0.40;;;;;;;;;;5008498;28;20092;-62
2021/04/11 13:11:21;;;;;;;1.17;0.52;;;;;;;;;;4999456;28;20508;-61
2021/04/11 13:13:58;;;;;;;0.50;0.50;;;;;;;;;;5006542;28;20053;-61
2021/04/11 13:16:28;;;;;;;0.85;0.40;;;;;;;;;;5003890;28;20493;-62
2021/04/11 13:19:10;;;;;;;0.90;0.70;;;;;;;;;;5007260;28;20026;-61
2021/04/11 13:21:40;;;;;;;0.35;0.35;;;;;;;;;;5003917;28;20418;-60
2021/04/11 13:24:07;;;;;;;1.02;0.60;;;;;;;;;;5008121;28;20387;-61
2021/04/11 13:26:41;;;;;;;0.30;0.30;;;;;;;;;;5009624;28;20033;-61
2021/04/11 13:29:14;;;;;;;0.60;0.40;;;;;;;;;;5007588;28;20022;-62
2021/04/11 13:31:50;;;;;;;0.98;0.68;;;;;;;;;;4996741;28;20044;-60
2021/04/11 13:34:23;;;;;;;0.85;0.65;;;;;;;;;;5000163;28;20440;-61
2021/04/11 13:36:51;;;;;;;0.90;0.60;;;;;;;;;;4995596;28;20023;-61
2021/04/11 13:39:34;;;;;;;1.73;0.38;;;;;;;;;;5000793;28;20034;-61
2021/04/11 13:42:04;;;;;;;1.42;0.45;;;;;;;;;;4995994;28;20025;-61
2021/04/11 13:44:31;;;;;;;1.40;0.50;;;;;;;;;;5000818;28;20417;-61
2021/04/11 13:47:09;;;;;;;1.17;0.40;;;;;;;;;;4995896;28;20077;-59
2021/04/11 13:49:59;;;;;;;2.00;0.40;;;;;;;;;;4996043;28;20021;-60
2021/04/11 13:52:46;;;;;;;1.67;0.50;;;;;;;;;;4996767;28;20042;-61
2021/04/11 13:55:16;;;;;;;2.92;0.60;;;;;;;;;;5003656;28;20042;-55
2021/04/11 13:57:46;;;;;;;3.78;0.40;;;;;;;;;;5008933;28;20022;-56
2021/04/11 14:00:16;;;;;;;1.80;0.60;;;;;;;;;;5007776;28;20509;-54
2021/04/11 14:02:47;;;;;;;2.95;0.50;;;;;;;;;;5006988;28;20048;-53
2021/04/11 14:05:33;;;;;;;5.68;0.50;;;;;;;;;;5004309;28;20026;-56
2021/04/11 14:08:04;;;;;;;1.45;0.40;;;;;;;;;;5005122;28;20041;-57
2021/04/11 14:10:40;;;;;;;1.23;0.50;;;;;;;;;;5007171;28;20022;-53
2021/04/11 14:13:26;;;;;;;2.20;0.30;;;;;;;;;;5010249;28;20037;-51
2021/04/11 14:15:53;;;;;;;2.10;0.50;;;;;;;;;;5013037;28;20055;-54
2021/04/11 14:18:23;;;;;;;2.25;0.40;;;;;;;;;;5010182;28;20018;-54
2021/04/11 14:20:56;;;;;;;0.73;0.40;;;;;;;;;;5011832;28;20179;-53
2021/04/11 14:23:42;;;;;;;4.65;0.50;;;;;;;;;;5009977;28;20141;-54
2021/04/11 14:26:17;;;;;;;4.65;0.40;;;;;;;;;;5010853;28;20026;-55
2021/04/11 14:28:49;;;;;;;1.63;0.50;;;;;;;;;;5012368;28;20062;-54
2021/04/11 14:31:19;;;;;;;1.42;0.47;;;;;;;;;;5009152;28;20053;-51
2021/04/11 14:34:04;;;;;;;1.30;0.52;;;;;;;;;;5004025;28;20517;-53
2021/04/11 14:36:39;;;;;;;6.65;0.60;;;;;;;;;;5003927;28;20054;-53
2021/04/11 14:39:12;;;;;;;5.13;0.60;;;;;;;;;;5003777;28;20056;-54
2021/04/11 14:41:44;;;;;;;11.32;0.93;;;;;;;;;;4998279;28;20022;-55
2021/04/11 14:44:12;;;;;;;2.92;0.47;;;;;;;;;;5004282;28;20026;-54
2021/04/11 14:46:51;;;;;;;0.75;0.55;;;;;;;;;;4994487;28;20037;-56
2021/04/11 14:49:25;;;;;;;3.15;0.52;;;;;;;;;;4995319;28;20021;-54
2021/04/11 14:51:58;;;;;;;1.67;0.50;;;;;;;;;;4996779;28;20041;-52
2021/04/11 14:54:25;;;;;;;1.30;0.50;;;;;;;;;;4997421;28;20102;-55
2021/04/11 14:57:11;;;;;;;1.13;0.52;;;;;;;;;;4995787;28;20058;-52
2021/04/11 14:59:48;;;;;;;3.22;0.70;;;;;;;;;;4996105;28;20034;-51
2021/04/11 15:02:44;;;;;;;2.00;0.57;;;;;;;;;;4993495;28;20041;-53
2021/04/11 15:05:30;;;;;;;3.15;0.70;;;;;;;;;;4993159;28;20038;-53
2021/04/11 15:08:07;;;;;;;0.77;0.57;;;;;;;;;;4996895;28;20030;-55
2021/04/11 15:10:46;;;;;;;3.00;0.60;;;;;;;;;;5003911;28;20101;-51
2021/04/11 15:13:20;;;;;;;3.85;0.93;;;;;;;;;;5002853;28;20073;-54
2021/04/11 15:15:50;;;;;;;0.43;0.32;;;;;;;;;;5008613;28;20027;-53
2021/04/11 15:18:19;;;;;;;2.15;0.50;;;;;;;;;;5003755;28;20044;-56
2021/04/11 15:21:19;;;;;;;5.25;0.70;;;;;;;;;;5002606;28;20023;-49
2021/04/11 15:23:46;;;;;;;5.32;0.70;;;;;;;;;;4968034;28;20058;-47